Time;durP1;ratioP1;P1;durP2;ratioP2;P2;SDS_P1;SDS_P2;PMS_P1;PMS_P2;Temp;Humidity;BMP_temperature;BMP_pressure;BME280_temperature;BME280_humidity;BME280_pressure;Samples;Min_cycle;Max_cycle;Signal;HPM_P1;HPM_P2
2022/12/28 00:01:27;;;;;;;;;;;;;;;16.88;52.33;100720.38;7253371;19;154128;-57
2022/12/28 00:03:54;;;;;;;;;;;;;;;16.87;52.34;100716.75;7254415;19;152391;-57
2022/12/28 00:06:22;;;;;;;;;;;;;;;16.87;52.39;100730.69;7250112;19;155290;-57
2022/12/28 00:08:51;;;;;;;;;;;;;;;16.86;52.51;100726.22;7259481;19;154261;-57
2022/12/28 00:11:18;;;;;;;;;;;;;;;16.86;52.64;100708.66;7251044;19;156738;-57
2022/12/28 00:13:57;;;;;;;;;;;;;;;16.85;52.77;100718.19;7253881;19;153322;-57
2022/12/28 00:16:26;;;;;;;;;;;;;;;16.84;52.78;100714.56;7250569;19;152797;-57
2022/12/28 00:18:54;;;;;;;;;;;;;;;16.84;53.05;100702.56;7253073;19;153930;-57
2022/12/28 00:21:20;;;;;;;;;;;;;;;16.82;52.95;100705.63;7250553;19;154533;-57
2022/12/28 00:23:48;;;;;;;;;;;;;;;16.82;52.82;100715.94;7250594;19;154287;-57
2022/12/28 00:26:15;;;;;;;;;;;;;;;16.82;53.02;100708.41;7253518;19;154450;-57
2022/12/28 00:28:42;;;;;;;;;;;;;;;16.81;53.16;100714.28;7251316;19;153266;-57
2022/12/28 00:31:09;;;;;;;;;;;;;;;16.81;52.82;100715.09;7260908;19;154348;-57
2022/12/28 00:33:36;;;;;;;;;;;;;;;16.79;52.91;100716.53;7251599;19;153348;-57
2022/12/28 00:36:02;;;;;;;;;;;;;;;16.81;53.09;100719.84;7250694;19;153407;-57
2022/12/28 00:38:32;;;;;;;;;;;;;;;16.78;53.21;100709.28;7250515;19;153961;-57
2022/12/28 00:40:59;;;;;;;;;;;;;;;16.76;53.11;100703.97;7251212;19;153556;-56
2022/12/28 00:43:26;;;;;;;;;;;;;;;16.75;53.33;100705.13;7253093;19;154251;-57
2022/12/28 00:45:53;;;;;;;;;;;;;;;16.75;53.44;100702.34;7253412;19;154419;-57
2022/12/28 00:48:19;;;;;;;;;;;;;;;16.74;53.67;100697.03;7249984;19;154714;-57
2022/12/28 00:50:46;;;;;;;;;;;;;;;16.74;53.91;100694.25;7251448;19;153266;-57
2022/12/28 00:53:13;;;;;;;;;;;;;;;16.71;54.00;100704.03;7256295;19;154289;-57
2022/12/28 00:55:40;;;;;;;;;;;;;;;16.71;54.13;100689.25;7253297;19;154219;-57
2022/12/28 00:58:07;;;;;;;;;;;;;;;16.70;53.66;100696.78;7252407;19;154551;-57
2022/12/28 01:00:37;;;;;;;;;;;;;;;16.71;53.97;100708.78;7251540;19;153377;-57
2022/12/28 01:03:04;;;;;;;;;;;;;;;16.68;54.17;100710.16;7249639;19;153005;-57
2022/12/28 01:05:31;;;;;;;;;;;;;;;16.67;54.19;100702.91;7250953;19;154410;-57
2022/12/28 01:07:57;;;;;;;;;;;;;;;16.67;54.55;100694.56;7250039;19;152646;-57
2022/12/28 01:10:24;;;;;;;;;;;;;;;16.67;54.43;100704.91;7250525;19;153525;-57
2022/12/28 01:12:52;;;;;;;;;;;;;;;16.66;54.31;100694.84;7252574;19;153164;-57
2022/12/28 01:15:19;;;;;;;;;;;;;;;16.65;54.34;100712.72;7258041;19;153163;-57
2022/12/28 01:17:45;;;;;;;;;;;;;;;16.65;54.27;100707.13;7252469;19;154224;-57
2022/12/28 01:20:12;;;;;;;;;;;;;;;16.64;54.62;100702.66;7246136;19;153614;-57
2022/12/28 01:22:38;;;;;;;;;;;;;;;16.64;54.40;100705.47;7251094;19;154414;-57
2022/12/28 01:25:05;;;;;;;;;;;;;;;16.62;54.39;100708.56;7250972;19;155833;-58
2022/12/28 01:27:32;;;;;;;;;;;;;;;16.60;54.88;100694.06;7250879;19;155170;-57
2022/12/28 01:29:58;;;;;;;;;;;;;;;16.61;54.82;100697.69;7251054;19;152972;-57
2022/12/28 01:32:25;;;;;;;;;;;;;;;16.60;54.75;100696.00;7252309;19;153913;-57
2022/12/28 01:34:52;;;;;;;;;;;;;;;16.59;54.73;100695.16;7249103;19;154339;-57
2022/12/28 01:37:18;;;;;;;;;;;;;;;16.58;54.65;100696.28;7255665;19;154009;-57
2022/12/28 01:39:45;;;;;;;;;;;;;;;16.57;55.08;100686.25;7247694;19;153276;-57
2022/12/28 01:42:16;;;;;;;;;;;;;;;16.57;55.14;100679.81;7252156;19;153347;-57
2022/12/28 01:44:47;;;;;;;;;;;;;;;16.56;54.78;100669.78;7252203;19;153560;-57
2022/12/28 01:47:18;;;;;;;;;;;;;;;16.56;54.99;100667.84;7251454;19;154114;-57
2022/12/28 01:49:50;;;;;;;;;;;;;;;16.54;55.25;100675.63;7249318;19;152976;-57
2022/12/28 01:52:24;;;;;;;;;;;;;;;16.54;55.21;100680.38;7246856;19;153697;-57
2022/12/28 01:54:53;;;;;;;;;;;;;;;16.54;55.13;100669.22;7248007;19;154243;-57
2022/12/28 01:57:23;;;;;;;;;;;;;;;16.52;55.24;100677.91;7257752;19;153139;-57
2022/12/28 01:59:52;;;;;;;;;;;;;;;16.52;55.00;100682.63;7248607;19;154368;-57
2022/12/28 02:02:20;;;;;;;;;;;;;;;16.51;55.09;100681.81;7251063;19;154203;-57
2022/12/28 02:04:47;;;;;;;;;;;;;;;16.50;55.10;100682.91;7250579;19;154475;-57
2022/12/28 02:07:29;;;;;;;;;;;;;;;16.49;54.97;100675.66;7246508;19;154006;-57
2022/12/28 02:09:56;;;;;;;;;;;;;;;16.49;55.49;100677.66;7245134;19;154417;-57
2022/12/28 02:12:43;;;;;;;;;;;;;;;16.49;55.21;100688.81;7249757;19;156088;-57
2022/12/28 02:15:10;;;;;;;;;;;;;;;16.46;55.50;100679.88;7248163;19;153599;-57
2022/12/28 02:17:36;;;;;;;;;;;;;;;16.46;55.25;100679.88;7249780;19;154725;-56
2022/12/28 02:20:04;;;;;;;;;;;;;;;16.46;55.49;100674.31;7254199;19;154347;-56
2022/12/28 02:22:51;;;;;;;;;;;;;;;16.45;55.65;100658.69;7247573;19;154331;-56
2022/12/28 02:25:27;;;;;;;;;;;;;;;16.45;55.59;100671.78;7249448;19;154762;-56
2022/12/28 02:27:57;;;;;;;;;;;;;;;16.44;55.62;100659.00;7248466;19;154944;-56
2022/12/28 02:30:24;;;;;;;;;;;;;;;16.43;55.62;100672.09;7247894;19;154225;-56
2022/12/28 02:32:57;;;;;;;;;;;;;;;16.43;55.40;100666.53;7249786;19;154015;-57
2022/12/28 02:35:24;;;;;;;;;;;;;;;16.43;55.38;100665.69;7245920;19;156026;-56
2022/12/28 02:37:52;;;;;;;;;;;;;;;16.43;55.72;100674.06;7250100;19;153545;-57
2022/12/28 02:40:25;;;;;;;;;;;;;;;16.43;55.76;100654.53;7245946;19;152158;-56
2022/12/28 02:42:53;;;;;;;;;;;;;;;16.41;55.68;100654.81;7255032;19;154158;-57
2022/12/28 02:51:27;;;;;;;;;;;;;;;16.38;56.20;100649.81;7252711;19;153528;-56
2022/12/28 02:54:06;;;;;;;;;;;;;;;16.38;56.06;100648.97;7255499;19;154633;-57
2022/12/28 02:56:45;;;;;;;;;;;;;;;16.37;55.97;100653.72;7254959;19;153494;-56
2022/12/28 02:59:22;;;;;;;;;;;;;;;16.37;56.23;100647.31;7256547;19;153454;-56
2022/12/28 03:01:49;;;;;;;;;;;;;;;16.36;56.05;100643.69;7252921;19;154328;-57
2022/12/28 03:04:22;;;;;;;;;;;;;;;16.37;56.20;100644.53;7253911;19;153779;-56
2022/12/28 03:09:56;;;;;;;;;;;;;;;16.35;56.09;100644.00;7252963;19;154173;-57
2022/12/28 03:12:35;;;;;;;;;;;;;;;16.34;55.92;100643.16;7257147;19;153869;-56
2022/12/28 03:15:07;;;;;;;;;;;;;;;16.35;56.13;100638.41;7255615;19;152413;-57
2022/12/28 03:31:35;;;;;;;;;;;;;;;16.31;56.46;100628.94;7260174;19;154252;-58
2022/12/28 03:34:05;;;;;;;;;;;;;;;16.30;56.46;100625.34;7254872;19;153333;-57
2022/12/28 03:36:32;;;;;;;;;;;;;;;16.30;56.58;100621.72;7252180;19;153495;-57
2022/12/28 03:39:19;;;;;;;;;;;;;;;16.30;56.20;100624.50;7253298;19;154612;-57
2022/12/28 03:41:50;;;;;;;;;;;;;;;16.29;56.23;100618.09;7251824;19;153565;-57
2022/12/28 03:44:22;;;;;;;;;;;;;;;16.29;56.46;100620.03;7254870;19;154720;-58
2022/12/28 03:46:56;;;;;;;;;;;;;;;16.28;56.65;100616.41;7251211;19;153803;-57
2022/12/28 03:49:23;;;;;;;;;;;;;;;16.27;56.42;100611.13;7248872;19;154569;-57
2022/12/28 03:51:51;;;;;;;;;;;;;;;16.27;56.48;100613.91;7246735;19;153098;-57
2022/12/28 03:54:18;;;;;;;;;;;;;;;16.26;56.82;100607.50;7259529;19;153321;-58
2022/12/28 03:56:45;;;;;;;;;;;;;;;16.27;56.82;100608.34;7251810;19;152842;-57
2022/12/28 03:59:12;;;;;;;;;;;;;;;16.26;56.57;100601.94;7251161;19;154606;-58
2022/12/28 04:01:39;;;;;;;;;;;;;;;16.25;56.67;100600.28;7253538;19;153330;-58
2022/12/28 04:04:06;;;;;;;;;;;;;;;16.25;56.52;100591.09;7248754;19;154028;-57
2022/12/28 04:06:33;;;;;;;;;;;;;;;16.25;56.68;100588.28;7247463;19;153595;-57
2022/12/28 04:09:00;;;;;;;;;;;;;;;16.24;56.69;100590.25;7252429;19;152866;-57
2022/12/28 04:11:26;;;;;;;;;;;;;;;16.24;56.69;100581.88;7253701;19;153465;-62
2022/12/28 04:13:53;;;;;;;;;;;;;;;16.23;56.83;100580.22;7260993;19;153393;-57
2022/12/28 04:16:20;;;;;;;;;;;;;;;16.24;56.86;100572.69;7251016;19;154337;-57
2022/12/28 04:18:46;;;;;;;;;;;;;;;16.21;56.78;100568.53;7253091;19;154337;-58
2022/12/28 04:21:14;;;;;;;;;;;;;;;16.22;57.21;100574.91;7249608;19;153072;-57
2022/12/28 04:23:41;;;;;;;;;;;;;;;16.21;57.14;100576.91;7252753;19;153855;-58
2022/12/28 04:26:10;;;;;;;;;;;;;;;16.22;56.87;100563.75;7254603;19;154881;-57
2022/12/28 04:28:37;;;;;;;;;;;;;;;16.20;57.04;100574.38;7252656;19;151951;-57
2022/12/28 04:31:06;;;;;;;;;;;;;;;16.20;57.39;100564.06;7253599;19;152912;-57
2022/12/28 04:33:34;;;;;;;;;;;;;;;16.19;57.56;100561.56;7253014;19;153913;-58
2022/12/28 04:36:10;;;;;;;;;;;;;;;16.18;57.26;100559.91;7257418;19;153257;-58
2022/12/28 04:38:36;;;;;;;;;;;;;;;16.18;57.47;100557.09;7250613;19;153255;-58
2022/12/28 04:41:04;;;;;;;;;;;;;;;16.17;57.17;100547.09;7249580;19;153383;-57
2022/12/28 04:43:32;;;;;;;;;;;;;;;16.17;57.42;100556.28;7252477;19;153966;-58
2022/12/28 04:46:01;;;;;;;;;;;;;;;16.16;57.20;100545.44;7251978;19;156156;-57
2022/12/28 04:48:28;;;;;;;;;;;;;;;16.18;57.51;100546.78;7250276;19;153006;-57
2022/12/28 04:50:55;;;;;;;;;;;;;;;16.16;57.48;100543.47;7250703;19;153710;-57
2022/12/28 04:53:22;;;;;;;;;;;;;;;16.16;57.24;100549.06;7251787;19;154561;-58
2022/12/28 04:55:49;;;;;;;;;;;;;;;16.15;57.68;100541.81;7250607;19;153581;-57
2022/12/28 04:58:15;;;;;;;;;;;;;;;16.16;57.47;100534.28;7257656;19;154151;-57
2022/12/28 05:00:42;;;;;;;;;;;;;;;16.15;57.60;100532.63;7251757;19;153415;-57
2022/12/28 05:03:09;;;;;;;;;;;;;;;16.14;57.82;100523.41;7252520;19;153378;-57
2022/12/28 05:05:36;;;;;;;;;;;;;;;16.13;57.88;100527.31;7249756;19;153274;-57
2022/12/28 05:08:03;;;;;;;;;;;;;;;16.13;58.02;100518.97;7249928;19;153571;-57
2022/12/28 05:10:30;;;;;;;;;;;;;;;16.13;57.68;100516.19;7245978;19;152990;-57
2022/12/28 05:12:56;;;;;;;;;;;;;;;16.12;57.92;100511.75;7248851;19;153496;-57
2022/12/28 05:15:23;;;;;;;;;;;;;;;16.13;57.84;100504.19;7251583;19;153163;-57
2022/12/28 05:17:50;;;;;;;;;;;;;;;16.12;58.06;100506.16;7251582;19;155045;-57
2022/12/28 05:20:19;;;;;;;;;;;;;;;16.12;58.07;100505.34;7256065;19;154601;-57
2022/12/28 05:22:46;;;;;;;;;;;;;;;16.12;57.99;100499.75;7250211;19;153796;-57
2022/12/28 05:25:12;;;;;;;;;;;;;;;16.12;58.03;100505.34;7250924;19;154707;-57
2022/12/28 05:27:39;;;;;;;;;;;;;;;16.11;58.29;100492.50;7247077;19;154542;-57
2022/12/28 05:30:06;;;;;;;;;;;;;;;16.11;58.22;100498.09;7251349;19;153817;-58
2022/12/28 05:32:33;;;;;;;;;;;;;;;16.10;58.15;100497.25;7247158;19;153460;-57
2022/12/28 05:35:00;;;;;;;;;;;;;;;16.10;58.07;100494.47;7248944;19;153362;-57
2022/12/28 05:37:26;;;;;;;;;;;;;;;16.09;58.00;100489.19;7250486;19;154711;-57
2022/12/28 05:39:53;;;;;;;;;;;;;;;16.09;58.15;100494.75;7249485;19;156259;-57
2022/12/28 05:42:20;;;;;;;;;;;;;;;16.09;58.01;100486.38;7258381;19;155794;-57
2022/12/28 05:44:46;;;;;;;;;;;;;;;16.09;58.05;100473.28;7251064;19;152151;-57
2022/12/28 05:47:13;;;;;;;;;;;;;;;16.08;58.45;100479.97;7251776;19;153348;-57
2022/12/28 05:49:40;;;;;;;;;;;;;;;16.07;58.29;100472.75;7249158;19;154023;-57
2022/12/28 05:52:06;;;;;;;;;;;;;;;16.07;58.16;100472.75;7245713;19;153993;-57
2022/12/28 05:54:33;;;;;;;;;;;;;;;16.08;58.46;100468.84;7250638;19;153555;-59
2022/12/28 05:57:00;;;;;;;;;;;;;;;16.07;58.40;100467.19;7249630;19;153418;-58
2022/12/28 05:59:26;;;;;;;;;;;;;;;16.06;58.07;100468.31;7250319;19;153896;-57
2022/12/28 06:01:53;;;;;;;;;;;;;;;16.06;58.26;100457.16;7256235;19;152178;-58
2022/12/28 06:04:20;;;;;;;;;;;;;;;16.07;58.51;100458.84;7246813;19;154507;-57
2022/12/28 06:06:47;;;;;;;;;;;;;;;16.05;58.32;100461.06;7246926;19;152948;-57
2022/12/28 06:09:14;;;;;;;;;;;;;;;16.06;58.16;100456.31;7246218;19;154167;-57
2022/12/28 06:11:41;;;;;;;;;;;;;;;16.05;58.27;100455.50;7247803;19;154162;-57
2022/12/28 06:14:08;;;;;;;;;;;;;;;16.05;58.70;100441.56;7249234;19;153518;-57
2022/12/28 06:16:36;;;;;;;;;;;;;;;16.05;58.51;100447.13;7249534;19;153292;-57
2022/12/28 06:19:04;;;;;;;;;;;;;;;16.03;58.59;100441.03;7249540;19;153345;-58
2022/12/28 06:21:32;;;;;;;;;;;;;;;16.03;58.33;100441.03;7243738;19;153715;-57
2022/12/28 06:23:59;;;;;;;;;;;;;;;16.03;58.51;100435.47;7261819;19;153233;-58
2022/12/28 06:26:27;;;;;;;;;;;;;;;16.01;58.67;100434.91;7257065;19;154155;-57
2022/12/28 06:28:54;;;;;;;;;;;;;;;16.02;58.67;100428.22;7258229;19;154918;-58
2022/12/28 06:31:22;;;;;;;;;;;;;;;16.02;58.74;100425.44;7255453;19;155893;-57
2022/12/28 06:33:52;;;;;;;;;;;;;;;16.01;58.73;100426.56;7258147;19;153762;-57
2022/12/28 06:36:20;;;;;;;;;;;;;;;16.02;58.53;100422.66;7255932;19;154075;-58
2022/12/28 06:38:48;;;;;;;;;;;;;;;16.01;58.92;100410.66;7253813;19;153696;-58
2022/12/28 06:41:15;;;;;;;;;;;;;;;16.02;58.71;100414.28;7252998;19;153350;-57
2022/12/28 06:43:42;;;;;;;;;;;;;;;16.01;58.62;100412.63;7254353;19;154770;-57
2022/12/28 06:46:10;;;;;;;;;;;;;;;16.00;58.73;100410.94;7259723;19;153361;-56
2022/12/28 06:48:37;;;;;;;;;;;;;;;16.00;58.74;100414.56;7255764;19;154195;-57
2022/12/28 06:51:05;;;;;;;;;;;;;;;15.98;58.89;100402.91;7252338;19;154062;-58
2022/12/28 06:53:35;;;;;;;;;;;;;;;15.98;58.57;100394.53;7251596;19;152839;-57
2022/12/28 06:56:04;;;;;;;;;;;;;;;15.98;59.15;100394.53;7254855;19;153566;-57
2022/12/28 06:58:31;;;;;;;;;;;;;;;15.97;58.68;100395.66;7254394;19;153455;-58
2022/12/28 07:01:08;;;;;;;;;;;;;;;15.97;59.18;100397.63;7256596;19;155238;-57
2022/12/28 07:03:35;;;;;;;;;;;;;;;15.97;58.85;100398.44;7255197;19;152743;-57
2022/12/28 07:06:02;;;;;;;;;;;;;;;15.97;58.81;100381.72;7251744;19;153504;-57
2022/12/28 07:08:29;;;;;;;;;;;;;;;15.98;59.03;100388.13;7261564;19;154484;-58
2022/12/28 07:11:06;;;;;;;;;;;;;;;15.97;59.00;100383.69;7253946;19;153960;-57
2022/12/28 07:13:33;;;;;;;;;;;;;;;15.96;59.03;100385.63;7255484;19;153494;-57
2022/12/28 07:16:01;;;;;;;;;;;;;;;15.96;58.78;100382.00;7252722;19;154682;-58
2022/12/28 07:18:27;;;;;;;;;;;;;;;15.95;59.13;100372.81;7254906;19;155975;-59
2022/12/28 07:21:03;;;;;;;;;;;;;;;15.93;58.92;100372.28;7249982;19;152849;-58
2022/12/28 07:23:30;;;;;;;;;;;;;;;15.93;58.90;100375.09;7251845;19;153699;-58
2022/12/28 07:26:02;;;;;;;;;;;;;;;15.93;58.91;100369.50;7254341;19;153584;-57
2022/12/28 07:28:29;;;;;;;;;;;;;;;15.93;59.38;100369.50;7255483;19;154243;-58
2022/12/28 07:30:56;;;;;;;;;;;;;;;15.94;59.13;100359.22;7261777;19;155798;-57
2022/12/28 07:33:22;;;;;;;;;;;;;;;15.94;59.16;100362.00;7253442;19;152911;-57
2022/12/28 07:35:49;;;;;;;;;;;;;;;15.94;59.31;100362.00;7253015;19;153074;-57
2022/12/28 07:38:16;;;;;;;;;;;;;;;15.92;58.97;100365.06;7252770;19;155658;-57
2022/12/28 07:40:47;;;;;;;;;;;;;;;15.92;59.23;100361.44;7251291;19;153536;-57
2022/12/28 07:43:13;;;;;;;;;;;;;;;15.92;59.21;100358.66;7255791;19;153178;-57
2022/12/28 07:45:40;;;;;;;;;;;;;;;15.91;58.98;100365.34;7253206;19;156704;-57
2022/12/28 07:48:07;;;;;;;;;;;;;;;15.90;59.23;100363.66;7252527;19;152144;-57
2022/12/28 07:50:34;;;;;;;;;;;;;;;15.89;59.16;100362.88;7253500;19;154361;-57
2022/12/28 07:53:04;;;;;;;;;;;;;;;15.89;59.59;100362.03;7259075;19;154626;-57
2022/12/28 07:55:31;;;;;;;;;;;;;;;15.89;59.24;100353.69;7255550;19;154178;-57
2022/12/28 07:57:58;;;;;;;;;;;;;;;15.87;59.39;100367.88;7254163;19;154279;-57
2022/12/28 08:00:25;;;;;;;;;;;;;;;15.88;59.17;100352.84;7254288;19;153256;-57
2022/12/28 08:02:54;;;;;;;;;;;;;;;15.87;59.22;100347.56;7251268;19;154039;-57
2022/12/28 08:05:21;;;;;;;;;;;;;;;15.87;59.54;100348.38;7250837;19;156136;-57
2022/12/28 08:07:47;;;;;;;;;;;;;;;15.86;59.52;100348.66;7254623;19;152743;-57
2022/12/28 08:10:14;;;;;;;;;;;;;;;15.85;59.64;100344.25;7251998;19;154237;-57
2022/12/28 08:12:41;;;;;;;;;;;;;;;15.85;59.37;100347.03;7256841;19;156452;-57
2022/12/28 08:15:08;;;;;;;;;;;;;;;15.85;59.46;100349.81;7252246;19;154911;-57
2022/12/28 08:17:35;;;;;;;;;;;;;;;15.84;59.37;100345.34;7252713;19;154271;-57
2022/12/28 08:20:03;;;;;;;;;;;;;;;15.85;59.37;100344.25;7252974;19;154945;-57
2022/12/28 08:22:30;;;;;;;;;;;;;;;15.85;59.19;100341.47;7250298;19;153733;-57
2022/12/28 08:24:56;;;;;;;;;;;;;;;15.84;59.34;100332.25;7251794;19;155351;-57
2022/12/28 08:27:23;;;;;;;;;;;;;;;15.82;59.15;100340.06;7253408;19;152297;-57
2022/12/28 08:29:50;;;;;;;;;;;;;;;15.83;59.28;100329.75;7254345;19;154191;-57
2022/12/28 08:32:17;;;;;;;;;;;;;;;15.82;59.48;100331.72;7250583;19;155145;-57
2022/12/28 08:34:44;;;;;;;;;;;;;;;15.81;59.36;100330.03;7261445;19;153720;-56
2022/12/28 08:37:11;;;;;;;;;;;;;;;15.81;59.26;100310.53;7248867;19;153771;-57
2022/12/28 08:39:37;;;;;;;;;;;;;;;15.81;59.56;100326.41;7254165;19;153379;-57
2022/12/28 08:42:04;;;;;;;;;;;;;;;15.81;59.34;100318.06;7252518;19;152571;-56
2022/12/28 08:44:31;;;;;;;;;;;;;;;15.80;59.30;100313.66;7250062;19;154459;-57
2022/12/28 08:46:58;;;;;;;;;;;;;;;15.80;59.33;100310.84;7250652;19;153915;-57
2022/12/28 08:49:25;;;;;;;;;;;;;;;15.79;59.59;100312.81;7253892;19;152881;-57
2022/12/28 08:51:52;;;;;;;;;;;;;;;15.79;59.60;100306.41;7248569;19;154212;-57
2022/12/28 08:54:18;;;;;;;;;;;;;;;15.80;59.35;100310.84;7252597;19;152799;-57
2022/12/28 08:56:45;;;;;;;;;;;;;;;15.79;59.52;100314.75;7258958;19;153657;-57
2022/12/28 08:59:16;;;;;;;;;;;;;;;15.78;59.21;100300.00;7254668;19;153369;-57
2022/12/28 09:01:43;;;;;;;;;;;;;;;15.77;59.29;100294.72;7252305;19;154238;-57
2022/12/28 09:04:20;;;;;;;;;;;;;;;15.77;59.24;100289.13;7250257;19;155048;-57
2022/12/28 09:06:47;;;;;;;;;;;;;;;15.77;59.17;100295.53;7249372;19;154593;-57
2022/12/28 09:09:16;;;;;;;;;;;;;;;15.77;59.30;100280.78;7252345;19;152647;-56
2022/12/28 09:11:42;;;;;;;;;;;;;;;15.76;59.19;100274.38;7249468;19;153492;-57
2022/12/28 09:14:11;;;;;;;;;;;;;;;15.76;59.32;100271.59;7253157;19;154010;-57
2022/12/28 09:16:45;;;;;;;;;;;;;;;15.77;59.40;100264.06;7251899;19;154039;-57
2022/12/28 09:19:13;;;;;;;;;;;;;;;15.75;59.13;100267.19;7258977;19;153961;-57
2022/12/28 09:21:40;;;;;;;;;;;;;;;15.76;59.35;100268.81;7248213;19;154445;-57
2022/12/28 09:24:07;;;;;;;;;;;;;;;15.76;59.12;100259.66;7249912;19;154094;-57
2022/12/28 09:26:35;;;;;;;;;;;;;;;15.75;59.23;100255.19;7250169;19;153272;-57
2022/12/28 09:29:03;;;;;;;;;;;;;;;15.76;59.49;100265.22;7250556;19;153440;-57
2022/12/28 09:31:31;;;;;;;;;;;;;;;15.75;59.21;100267.19;7251331;19;153953;-57
2022/12/28 09:34:01;;;;;;;;;;;;;;;15.75;59.20;100252.41;7250291;19;153816;-57
2022/12/28 09:36:47;;;;;;;;;;;;;;;15.73;59.19;100258.28;7248348;19;154833;-58
2022/12/28 09:39:16;;;;;;;;;;;;;;;15.73;59.24;100244.34;7249322;19;155155;-57
2022/12/28 09:41:47;;;;;;;;;;;;;;;15.73;59.18;100254.66;7258494;19;154961;-57
2022/12/28 09:44:14;;;;;;;;;;;;;;;15.71;59.12;100249.41;7249769;19;155923;-57
2022/12/28 09:46:52;;;;;;;;;;;;;;;15.72;59.12;100241.84;7251816;19;153026;-57
2022/12/28 09:49:20;;;;;;;;;;;;;;;15.71;59.26;100248.56;7251759;19;153799;-57
2022/12/28 09:51:57;;;;;;;;;;;;;;;15.71;59.57;100231.84;7242585;19;153616;-57
2022/12/28 09:54:23;;;;;;;;;;;;;;;15.71;59.30;100237.44;7251116;19;152207;-57
2022/12/28 09:56:50;;;;;;;;;;;;;;;15.69;59.60;100226.56;7249285;19;154439;-57
2022/12/28 09:59:23;;;;;;;;;;;;;;;15.71;59.36;100226.28;7248200;19;155013;-57
2022/12/28 10:01:54;;;;;;;;;;;;;;;15.70;59.58;100219.06;7250456;19;153780;-57
2022/12/28 10:04:21;;;;;;;;;;;;;;;15.71;59.45;100220.72;7256777;19;154394;-57
2022/12/28 10:06:48;;;;;;;;;;;;;;;15.69;59.30;100209.88;7247091;19;152941;-58
2022/12/28 10:09:21;;;;;;;;;;;;;;;15.70;59.52;100196.78;7250345;19;153768;-57
2022/12/28 10:11:47;;;;;;;;;;;;;;;15.70;59.20;100194.00;7251087;19;153754;-57
2022/12/28 10:14:33;;;;;;;;;;;;;;;15.69;59.25;100193.16;7249505;19;153449;-57
2022/12/28 10:17:00;;;;;;;;;;;;;;;15.68;59.20;100197.06;7251267;19;153344;-57
2022/12/28 10:19:28;;;;;;;;;;;;;;;15.69;59.65;100198.72;7249202;19;153432;-57
2022/12/28 10:21:59;;;;;;;;;;;;;;;15.68;59.41;100188.69;7247162;19;152156;-57
2022/12/28 10:24:26;;;;;;;;;;;;;;;15.69;59.53;100189.53;7256553;19;154148;-57
2022/12/28 10:26:59;;;;;;;;;;;;;;;15.68;59.52;100169.22;7249295;19;153476;-57
2022/12/28 10:29:26;;;;;;;;;;;;;;;15.66;59.48;100171.47;7249530;19;154052;-57
2022/12/28 10:32:05;;;;;;;;;;;;;;;15.66;59.76;100160.34;7249781;19;154183;-57
2022/12/28 10:34:33;;;;;;;;;;;;;;;15.65;59.55;100158.66;7249062;19;154438;-57
2022/12/28 10:37:26;;;;;;;;;;;;;;;15.67;59.62;100144.47;7247166;19;153709;-57
2022/12/28 10:40:05;;;;;;;;;;;;;;;15.67;59.46;100138.91;7248068;19;155276;-57
2022/12/28 10:42:32;;;;;;;;;;;;;;;15.66;59.74;100135.28;7249277;19;154381;-57
2022/12/28 10:45:02;;;;;;;;;;;;;;;15.67;59.56;100138.91;7249275;19;152871;-57
2022/12/28 10:47:34;;;;;;;;;;;;;;;15.65;59.49;100133.63;7255371;19;154450;-57
2022/12/28 10:50:01;;;;;;;;;;;;;;;15.65;59.77;100118.88;7248095;19;154249;-58
2022/12/28 10:52:54;;;;;;;;;;;;;;;15.66;59.41;100101.03;7247068;19;154165;-58
2022/12/28 10:55:29;;;;;;;;;;;;;;;15.64;59.79;100101.31;7247161;19;153736;-58
2022/12/28 10:58:13;;;;;;;;;;;;;;;15.64;59.36;100108.84;7250118;19;154884;-56
2022/12/28 11:01:06;;;;;;;;;;;;;;;15.64;59.77;100092.13;7246214;19;154107;-58
2022/12/28 11:03:35;;;;;;;;;;;;;;;15.64;59.71;100075.44;7245495;19;154722;-56
2022/12/28 11:06:09;;;;;;;;;;;;;;;15.65;59.61;100077.09;7245651;19;153822;-56
2022/12/28 11:08:39;;;;;;;;;;;;;;;15.64;59.36;100069.88;7249734;19;153999;-58
2022/12/28 11:11:14;;;;;;;;;;;;;;;15.63;59.59;100055.09;7263325;19;154068;-58
2022/12/28 11:13:43;;;;;;;;;;;;;;;15.62;59.70;100047.91;7252462;19;154424;-58
2022/12/28 11:16:12;;;;;;;;;;;;;;;15.63;59.59;100037.56;7256188;19;153007;-58
2022/12/28 11:18:39;;;;;;;;;;;;;;;15.62;59.63;100033.97;7257646;19;153083;-56
2022/12/28 11:21:09;;;;;;;;;;;;;;;15.61;59.51;100026.75;7250587;19;153520;-56
2022/12/28 11:23:37;;;;;;;;;;;;;;;15.61;59.81;100007.25;7254337;19;153722;-58
2022/12/28 11:26:03;;;;;;;;;;;;;;;15.62;59.80;100002.53;7253859;19;153395;-58
2022/12/28 11:28:30;;;;;;;;;;;;;;;15.61;59.36;100010.06;7254989;19;153772;-56
2022/12/28 11:30:57;;;;;;;;;;;;;;;15.60;59.54;99988.91;7252962;19;154599;-58
2022/12/28 11:33:31;;;;;;;;;;;;;;;15.60;59.58;99983.31;7261935;19;153978;-57
2022/12/28 11:35:59;;;;;;;;;;;;;;;15.59;59.73;99973.31;7252653;19;153599;-56
2022/12/28 11:38:44;;;;;;;;;;;;;;;15.61;59.83;99967.47;7254179;19;153894;-56
2022/12/28 11:41:23;;;;;;;;;;;;;;;15.60;59.65;99958.28;7254450;19;153273;-59
2022/12/28 11:43:59;;;;;;;;;;;;;;;15.61;59.87;99950.75;7250274;19;153504;-56
2022/12/28 11:46:25;;;;;;;;;;;;;;;15.60;59.60;99937.94;7254131;19;152800;-56
2022/12/28 11:48:57;;;;;;;;;;;;;;;15.59;59.37;99923.19;7253413;19;155732;-56
2022/12/28 11:51:25;;;;;;;;;;;;;;;15.58;59.51;99927.09;7253234;19;153159;-57
2022/12/28 11:53:54;;;;;;;;;;;;;;;15.58;59.84;99924.31;7249142;19;153444;-56
2022/12/28 11:56:21;;;;;;;;;;;;;;;15.58;59.60;99908.44;7262360;19;153082;-56
2022/12/28 11:58:57;;;;;;;;;;;;;;;15.57;59.83;99906.81;7255500;19;152616;-57
2022/12/28 12:01:27;;;;;;;;;;;;;;;15.58;59.29;99886.19;7252786;19;153292;-56
2022/12/28 12:03:56;;;;;;;;;;;;;;;15.57;59.73;99884.56;7254467;19;154692;-56
2022/12/28 12:06:38;;;;;;;;;;;;;;;15.57;59.66;99873.41;7249126;19;152095;-56
2022/12/28 12:09:23;;;;;;;;;;;;;;;15.57;59.84;99878.97;7250975;19;154422;-56
2022/12/28 12:11:51;;;;;;;;;;;;;;;15.56;59.75;99868.13;7251686;19;154180;-56
2022/12/28 12:14:31;;;;;;;;;;;;;;;15.56;59.81;99860.63;7252239;19;153580;-56
2022/12/28 12:17:06;;;;;;;;;;;;;;;15.57;59.92;99845.56;7250033;19;153349;-56
2022/12/28 12:19:35;;;;;;;;;;;;;;;15.55;59.83;99853.38;7260824;19;153259;-56
2022/12/28 12:22:09;;;;;;;;;;;;;;;15.56;59.60;99823.59;7250395;19;154974;-56
2022/12/28 12:24:41;;;;;;;;;;;;;;;15.55;59.54;99819.97;7250499;19;154525;-56
2022/12/28 12:27:18;;;;;;;;;;;;;;;15.55;59.88;99822.78;7253710;19;153846;-56
2022/12/28 12:30:14;;;;;;;;;;;;;;;15.55;59.73;99805.22;7253100;19;157474;-56
2022/12/28 12:32:40;;;;;;;;;;;;;;;15.55;59.54;99794.09;7252673;19;153925;-56
2022/12/28 12:35:12;;;;;;;;;;;;;;;15.55;59.90;99777.41;7252519;19;154698;-57
2022/12/28 12:37:55;;;;;;;;;;;;;;;15.54;59.68;99771.00;7252492;19;155631;-56
2022/12/28 12:40:24;;;;;;;;;;;;;;;15.54;59.85;99759.88;7259176;19;153357;-56
2022/12/28 12:43:01;;;;;;;;;;;;;;;15.53;59.59;99744.31;7248509;19;153880;-56
2022/12/28 12:45:28;;;;;;;;;;;;;;;15.53;59.70;99740.72;7252526;19;153339;-56
2022/12/28 12:47:55;;;;;;;;;;;;;;;15.53;59.86;99732.34;7254907;19;153319;-57
2022/12/28 12:50:28;;;;;;;;;;;;;;;15.53;59.65;99724.00;7248327;19;153490;-57
2022/12/28 12:53:05;;;;;;;;;;;;;;;15.53;59.96;99719.28;7253233;19;153784;-56
2022/12/28 12:55:38;;;;;;;;;;;;;;;15.52;60.00;99720.41;7252272;19;154457;-56
2022/12/28 12:58:15;;;;;;;;;;;;;;;15.53;59.76;99693.38;7249477;19;154190;-56
2022/12/28 13:00:42;;;;;;;;;;;;;;;15.52;59.68;99680.59;7253188;19;153217;-56
2022/12/28 13:03:17;;;;;;;;;;;;;;;15.52;60.12;99689.78;7256246;19;153990;-56